Time;durP1;ratioP1;P1;durP2;ratioP2;P2;SDS_P1;SDS_P2;PMS_P1;PMS_P2;Temp;Humidity;BMP_temperature;BMP_pressure;BME280_temperature;BME280_humidity;BME280_pressure;Samples;Min_cycle;Max_cycle;Signal;HPM_P1;HPM_P2
2022/05/04 00:05:34;;;;;;;9.77;2.23;;;;;;;9.21;67.99;101773.44;20721689;28;20048;-67
2022/05/04 00:15:56;;;;;;;11.03;2.57;;;;;;;9.01;68.97;101774.31;20680573;28;20049;-67
2022/05/04 00:26:17;;;;;;;9.90;2.90;;;;;;;8.90;69.61;101773.88;20716492;28;20133;-68
2022/05/04 00:36:39;;;;;;;11.50;2.97;;;;;;;8.91;70.62;101769.56;20699139;28;20034;-67
2022/05/04 00:47:00;;;;;;;10.27;2.40;;;;;;;8.87;69.88;101779.25;20701529;28;20034;-67
2022/05/04 00:58:54;;;;;;;12.73;2.50;;;;;;;8.93;68.83;101768.56;20682253;28;20061;-68
2022/05/04 01:08:04;;;;;;;13.17;2.80;;;;;;;8.82;69.27;101776.00;20696992;28;20067;-66
2022/05/04 01:18:25;;;;;;;9.47;2.63;;;;;;;8.76;69.58;101771.03;20699273;28;20418;-66
2022/05/04 01:28:47;;;;;;;8.37;2.27;;;;;;;8.71;70.37;101766.94;20671819;28;20289;-67
2022/05/04 01:39:15;;;;;;;5.85;1.88;;;;;;;8.65;69.70;101762.84;20706698;28;20069;-67
2022/05/04 01:49:37;;;;;;;11.43;2.23;;;;;;;8.74;68.86;101770.25;20693564;28;20430;-66
2022/05/04 01:59:59;;;;;;;14.88;2.60;;;;;;;8.88;68.69;101770.50;20673575;28;20034;-66
2022/05/04 02:10:21;;;;;;;16.60;2.53;;;;;;;8.92;68.49;101763.44;20688086;28;20049;-66
2022/05/04 02:20:42;;;;;;;10.60;2.07;;;;;;;8.96;68.12;101752.84;20708566;28;20045;-67
2022/05/04 02:31:04;;;;;;;3.93;1.70;;;;;;;9.01;68.15;101748.28;20642834;28;20057;-67
2022/05/04 02:41:25;;;;;;;10.37;2.50;;;;;;;9.05;67.85;101746.41;20707970;28;20058;-67
2022/05/04 02:51:47;;;;;;;8.07;2.30;;;;;;;9.13;67.23;101745.16;20671665;28;20049;-65
2022/05/04 03:12:48;;;;;;;9.88;2.05;;;;;;;9.23;66.10;101741.22;20693242;28;20525;-66
2022/05/04 03:23:10;;;;;;;7.90;1.80;;;;;;;9.24;66.63;101737.72;20700748;28;20414;-66
2022/05/04 03:33:31;;;;;;;10.97;1.83;;;;;;;9.29;66.13;101740.09;20719766;28;20038;-66
2022/05/04 03:43:53;;;;;;;12.47;2.00;;;;;;;9.29;65.92;101719.28;20692658;28;20052;-66
2022/05/04 03:54:15;;;;;;;8.43;2.00;;;;;;;9.27;66.89;101729.78;20665990;28;20056;-66
2022/05/04 04:04:36;;;;;;;7.63;2.38;;;;;;;9.30;66.78;101739.19;20664061;28;20053;-66
2022/05/04 04:14:58;;;;;;;9.17;1.93;;;;;;;9.31;66.59;101744.34;20694668;28;20042;-66
2022/05/04 04:25:19;;;;;;;12.77;2.00;;;;;;;9.36;66.17;101728.53;20708912;28;20054;-66
2022/05/04 04:35:41;;;;;;;9.20;2.20;;;;;;;9.40;65.73;101754.31;20711439;28;20037;-66
2022/05/04 04:46:02;;;;;;;9.37;1.93;;;;;;;9.37;66.45;101748.44;20695403;28;20073;-66
2022/05/04 04:56:24;;;;;;;9.13;2.17;;;;;;;9.39;67.17;101747.44;20676048;28;20356;-67
2022/05/04 05:06:46;;;;;;;12.33;2.23;;;;;;;9.34;68.55;101749.38;20734060;28;20129;-65
2022/05/04 05:17:07;;;;;;;11.90;2.63;;;;;;;9.36;67.84;101744.97;20704343;28;20637;-66
2022/05/04 05:27:29;;;;;;;11.80;2.40;;;;;;;9.44;66.14;101745.47;20716207;28;20441;-66
2022/05/04 05:37:51;;;;;;;10.38;2.40;;;;;;;9.45;66.36;101741.97;20658478;28;20084;-66
2022/05/04 05:48:13;;;;;;;8.90;2.03;;;;;;;9.63;65.31;101746.31;20737604;28;20283;-65
2022/05/04 05:58:34;;;;;;;8.03;2.20;;;;;;;9.74;65.28;101744.06;20680065;28;20446;-66
2022/05/04 06:08:56;;;;;;;6.17;1.93;;;;;;;9.83;65.51;101754.06;20709810;28;20045;-66
2022/05/04 06:19:17;;;;;;;15.50;2.30;;;;;;;9.95;64.68;101754.34;20714872;28;20077;-66
2022/05/04 06:40:20;;;;;;;6.57;1.73;;;;;;;10.25;63.67;101772.88;20707785;28;20125;-65
2022/05/04 06:50:42;;;;;;;8.45;2.00;;;;;;;10.52;64.31;101762.81;20701215;28;20092;-66
2022/05/04 07:01:05;;;;;;;6.87;1.50;;;;;;;10.75;62.46;101765.13;20689582;28;20046;-68
2022/05/04 07:11:27;;;;;;;8.02;1.80;;;;;;;10.84;62.24;101759.44;20683253;28;20666;-68
2022/05/04 07:21:48;;;;;;;10.70;2.07;;;;;;;10.91;62.86;101755.59;20688302;28;20462;-65
2022/05/04 07:32:10;;;;;;;9.23;1.97;;;;;;;11.08;62.35;101763.38;20656899;28;20129;-69
2022/05/04 07:42:32;;;;;;;11.82;2.00;;;;;;;11.06;61.94;101765.22;20686580;28;20050;-66
2022/05/04 07:52:53;;;;;;;10.40;2.23;;;;;;;11.26;62.67;101767.66;20682380;28;20038;-66
2022/05/04 08:13:55;;;;;;;13.80;2.30;;;;;;;11.77;63.04;101770.16;20707049;28;20285;-68
2022/05/04 08:24:21;;;;;;;9.00;2.22;;;;;;;11.89;62.34;101774.69;20705277;28;20056;-69
2022/05/04 08:34:42;;;;;;;11.97;2.10;;;;;;;11.97;62.24;101777.72;20703425;28;20160;-66
2022/05/04 08:45:06;;;;;;;12.67;2.37;;;;;;;12.16;61.60;101773.16;20698339;28;20393;-68
2022/05/04 08:55:28;;;;;;;8.20;2.20;;;;;;;12.29;60.39;101766.31;20692134;28;20042;-66
2022/05/04 09:05:53;;;;;;;;;;;;;;;12.22;57.89;101767.59;20657584;28;20048;-67
2022/05/04 09:16:35;;;;;;;9.75;2.70;;;;;;;12.26;59.90;101776.94;20702543;28;19921;-68
2022/05/04 09:26:57;;;;;;;11.07;2.47;;;;;;;12.36;59.41;101765.06;20670444;28;20050;-68
2022/05/04 09:47:59;;;;;;;7.10;2.30;;;;;;;12.54;60.73;101764.84;20720788;28;20077;-66
2022/05/04 09:58:23;;;;;;;12.90;2.67;;;;;;;12.69;60.24;101758.72;20713735;28;20046;-69
2022/05/04 10:08:44;;;;;;;8.50;2.20;;;;;;;12.80;61.02;101754.56;20706969;28;20034;-68
2022/05/04 10:19:11;;;;;;;7.50;2.53;;;;;;;13.03;60.24;101754.06;20690882;28;20038;-67
2022/05/04 10:40:32;;;;;;;12.88;3.45;;;;;;;13.51;57.61;101740.59;20660995;28;20054;-67
2022/05/04 10:51:02;;;;;;;8.68;3.05;;;;;;;13.66;57.46;101735.22;20706091;28;20042;-67
2022/05/04 11:01:33;;;;;;;7.22;2.90;;;;;;;13.85;55.78;101734.91;20697858;28;20078;-67
2022/05/04 11:11:57;;;;;;;9.43;3.30;;;;;;;14.15;57.36;101727.72;20697087;28;20125;-66
2022/05/04 11:22:19;;;;;;;8.90;3.92;;;;;;;14.27;57.68;101729.53;20721624;28;20029;-67
2022/05/04 11:33:06;;;;;;;9.45;4.00;;;;;;;14.54;55.41;101711.06;20664061;28;20043;-66
2022/05/04 11:43:34;;;;;;;8.70;3.75;;;;;;;14.94;57.55;101714.44;20659657;28;20046;-67
2022/05/04 11:53:55;;;;;;;12.02;4.15;;;;;;;15.12;55.11;101713.19;20667630;28;20046;-67
2022/05/04 12:04:17;;;;;;;13.48;3.92;;;;;;;15.51;56.64;101695.50;20708192;28;20080;-67
2022/05/04 12:14:40;;;;;;;9.02;3.90;;;;;;;15.86;55.81;101688.56;20743457;28;20057;-67
2022/05/04 12:25:06;;;;;;;9.25;3.20;;;;;;;15.89;56.64;101685.69;20700359;28;20058;-67
2022/05/04 12:35:29;;;;;;;9.35;3.22;;;;;;;16.01;54.47;101679.56;20720393;28;20675;-67
2022/05/04 12:45:54;;;;;;;8.25;3.75;;;;;;;15.94;55.06;101667.81;20673603;28;20048;-66
2022/05/04 13:07:04;;;;;;;6.47;3.00;;;;;;;16.12;55.43;101650.66;20690474;28;20046;-66
2022/05/04 13:17:26;;;;;;;7.70;3.47;;;;;;;15.98;52.35;101654.31;20713223;28;20128;-65
2022/05/04 13:27:48;;;;;;;9.60;3.20;;;;;;;15.45;55.18;101633.72;20684264;28;20689;-66
2022/05/04 13:38:09;;;;;;;;;;;;;;;15.45;48.25;101627.59;20676742;28;20049;-66
2022/05/04 13:48:31;;;;;;;9.15;3.20;;;;;;;15.63;56.39;101632.41;20692883;28;19921;-67
2022/05/04 13:58:53;;;;;;;37.67;5.55;;;;;;;15.66;56.62;101632.16;20700580;28;20410;-66
2022/05/04 14:09:15;;;;;;;11.25;3.58;;;;;;;15.94;55.42;101625.72;20693413;28;20042;-66
2022/05/04 14:19:36;;;;;;;9.23;3.03;;;;;;;16.01;54.97;101625.16;20707832;28;20053;-67
2022/05/04 14:29:58;;;;;;;6.90;2.97;;;;;;;15.90;55.01;101634.78;20692888;28;20046;-66
2022/05/04 14:40:20;;;;;;;;;;;;;;;15.74;46.36;101623.72;20653262;28;20057;-67
2022/05/04 14:50:44;;;;;;;10.15;2.80;;;;;;;15.94;56.00;101620.47;20675649;28;20469;-65
2022/05/04 15:01:06;;;;;;;10.27;2.95;;;;;;;15.93;55.78;101608.25;20668553;28;20038;-66
2022/05/04 15:11:28;;;;;;;;;;;;;;;16.01;48.12;101608.56;20681444;28;20512;-67
2022/05/04 15:21:50;;;;;;;8.03;3.13;;;;;;;16.15;55.81;101613.63;20693103;28;20265;-67
2022/05/04 15:32:11;;;;;;;8.35;2.50;;;;;;;16.12;56.61;101621.72;20801334;28;20613;-68
2022/05/04 15:42:33;;;;;;;8.70;2.38;;;;;;;16.08;56.77;101622.91;20774067;28;20049;-66
2022/05/04 15:52:54;;;;;;;10.25;2.42;;;;;;;15.90;57.61;101616.38;20771842;28;20045;-66
2022/05/04 16:13:56;;;;;;;7.05;2.20;;;;;;;15.91;56.46;101610.16;20688566;28;20636;-66
2022/05/04 16:24:19;;;;;;;12.75;2.30;;;;;;;16.13;57.55;101605.00;20691127;28;20069;-67
2022/05/04 16:34:41;;;;;;;14.32;2.60;;;;;;;16.60;57.16;101606.53;20695788;28;20049;-67
2022/05/04 16:45:05;;;;;;;;;;;;;;;16.30;49.70;101601.94;20685517;28;20060;-67
2022/05/04 16:55:27;;;;;;;7.70;2.15;;;;;;;16.31;56.99;101608.88;20719062;28;19922;-67
2022/05/04 17:05:48;;;;;;;;;;;;;;;15.56;51.87;101609.28;20697915;28;20053;-67
2022/05/04 17:16:10;;;;;;;5.90;2.30;;;;;;;15.45;60.13;101611.84;20708495;28;19932;-69
2022/05/04 17:26:32;;;;;;;12.35;2.10;;;;;;;15.30;60.10;101617.38;20689772;28;20273;-66
2022/05/04 17:36:54;;;;;;;5.70;2.17;;;;;;;15.19;60.01;101636.47;20658139;28;20246;-65
2022/05/04 17:47:17;;;;;;;;;;;;;;;14.63;54.48;101636.97;20659052;28;20053;-65
2022/05/04 17:57:39;;;;;;;7.97;2.10;;;;;;;14.42;62.33;101641.97;20663746;28;19957;-65
2022/05/04 18:08:03;;;;;;;7.28;2.35;;;;;;;13.95;62.46;101636.41;20675629;28;20042;-65
2022/05/04 18:18:29;;;;;;;8.35;2.08;;;;;;;13.67;61.95;101641.75;20712407;28;20042;-67
2022/05/04 18:28:50;;;;;;;6.93;1.75;;;;;;;13.34;61.98;101653.50;20638441;28;20049;-68
2022/05/04 18:39:12;;;;;;;22.33;2.15;;;;;;;12.99;62.34;101671.41;20657474;28;20124;-67
2022/05/04 18:49:33;;;;;;;7.80;2.40;;;;;;;12.76;62.68;101685.00;20703665;28;20588;-67
2022/05/04 18:59:55;;;;;;;13.53;2.50;;;;;;;12.53;62.52;101693.38;20679388;28;20289;-67
2022/05/04 19:10:19;;;;;;;8.75;1.90;;;;;;;12.35;62.82;101701.44;20715968;28;20281;-67
2022/05/04 19:20:41;;;;;;;9.55;2.22;;;;;;;12.22;63.20;101712.72;20698744;28;20041;-67
2022/05/04 19:31:02;;;;;;;5.38;1.90;;;;;;;12.06;63.16;101720.56;20708772;28;20038;-67
2022/05/04 19:41:24;;;;;;;6.00;1.67;;;;;;;11.77;63.70;101723.13;20656194;28;20518;-67
2022/05/04 19:51:46;;;;;;;12.95;2.85;;;;;;;11.62;63.54;101727.41;20677749;28;20046;-68
2022/05/04 20:02:08;;;;;;;8.48;2.03;;;;;;;11.45;64.03;101729.22;20852647;28;20067;-67
2022/05/04 20:12:29;;;;;;;;;;;;;;;11.26;64.43;101733.72;20871902;28;20052;-67
2022/05/04 20:22:51;;;;;;;7.30;2.35;;;;;;;11.25;64.30;101746.88;20901570;28;19931;-67
2022/05/04 20:33:18;;;;;;;10.57;2.35;;;;;;;11.10;64.10;101748.50;20879258;28;20049;-67
2022/05/04 20:43:40;;;;;;;3.70;2.03;;;;;;;11.09;64.38;101746.81;20876811;28;20041;-67
2022/05/04 20:54:02;;;;;;;6.67;2.30;;;;;;;10.99;64.31;101757.78;20934768;28;20282;-67
2022/05/04 21:04:25;;;;;;;5.90;1.80;;;;;;;10.86;64.54;101762.81;20899228;28;20045;-68
2022/05/04 21:14:47;;;;;;;6.38;2.20;;;;;;;10.73;64.66;101761.75;20873125;28;20041;-67
2022/05/04 21:25:14;;;;;;;7.97;2.47;;;;;;;10.69;64.93;101770.63;20921416;28;20052;-67
2022/05/04 21:35:36;;;;;;;10.40;2.38;;;;;;;10.67;65.01;101777.69;20886231;28;20069;-67
2022/05/04 21:45:57;;;;;;;7.35;2.20;;;;;;;10.59;64.71;101779.00;20874667;28;20116;-67
2022/05/04 21:56:19;;;;;;;8.57;2.50;;;;;;;10.52;65.01;101781.06;20867824;28;20255;-67
2022/05/04 22:06:41;;;;;;;7.03;2.53;;;;;;;10.44;65.11;101778.91;20901455;28;20049;-67
2022/05/04 22:17:03;;;;;;;6.33;2.57;;;;;;;10.31;65.49;101781.25;20868937;28;20424;-66
2022/05/04 22:27:24;;;;;;;7.22;2.30;;;;;;;10.17;65.49;101780.25;20891771;28;20044;-66
2022/05/04 22:37:46;;;;;;;6.50;2.43;;;;;;;10.11;65.18;101791.81;20895548;28;20121;-66
2022/05/04 22:48:07;;;;;;;9.00;3.57;;;;;;;10.00;66.40;101796.66;20930115;28;20051;-66
2022/05/04 22:58:29;;;;;;;6.57;3.10;;;;;;;9.87;66.65;101802.47;20914812;28;20040;-67
2022/05/04 23:08:52;;;;;;;6.57;3.40;;;;;;;9.73;67.12;101815.28;20918238;28;20033;-67
2022/05/04 23:19:13;;;;;;;11.15;3.92;;;;;;;9.56;67.34;101808.22;20848394;28;20275;-66
2022/05/04 23:29:35;;;;;;;10.50;3.90;;;;;;;9.44;67.48;101813.13;20841925;28;20416;-66
2022/05/04 23:39:57;;;;;;;6.72;3.47;;;;;;;9.36;68.24;101809.19;20854117;28;20133;-68
2022/05/04 23:50:19;;;;;;;7.38;3.30;;;;;;;9.13;68.38;101822.31;20845967;28;20045;-69
